sensor_id;sensor_type;location;lat;lon;timestamp;P1;durP1;ratioP1;P2;durP2;ratioP2
16804;SDS011;8520;50.102;20.010;2022-12-18T00:01:27;65.67;;;49.57;;
16804;SDS011;8520;50.102;20.010;2022-12-18T00:03:57;65.93;;;48.37;;
16804;SDS011;8520;50.102;20.010;2022-12-18T00:06:28;61.47;;;49.17;;
16804;SDS011;8520;50.102;20.010;2022-12-18T00:08:57;63.53;;;47.33;;
16804;SDS011;8520;50.102;20.010;2022-12-18T00:11:26;64.57;;;48.67;;
16804;SDS011;8520;50.102;20.010;2022-12-18T00:13:57;66.17;;;49.27;;
16804;SDS011;8520;50.102;20.010;2022-12-18T00:16:27;65.73;;;48.10;;
16804;SDS011;8520;50.102;20.010;2022-12-18T00:18:58;67.80;;;49.50;;
16804;SDS011;8520;50.102;20.010;2022-12-18T00:21:29;63.83;;;49.50;;
16804;SDS011;8520;50.102;20.010;2022-12-18T00:23:58;65.30;;;49.03;;
16804;SDS011;8520;50.102;20.010;2022-12-18T00:26:27;63.83;;;48.83;;
16804;SDS011;8520;50.102;20.010;2022-12-18T00:29:01;59.43;;;45.93;;
16804;SDS011;8520;50.102;20.010;2022-12-18T00:31:31;65.83;;;48.40;;
16804;SDS011;8520;50.102;20.010;2022-12-18T00:34:00;59.53;;;47.30;;
16804;SDS011;8520;50.102;20.010;2022-12-18T00:36:30;60.90;;;48.20;;
16804;SDS011;8520;50.102;20.010;2022-12-18T00:39:00;59.57;;;47.97;;
16804;SDS011;8520;50.102;20.010;2022-12-18T00:41:29;59.00;;;46.00;;
16804;SDS011;8520;50.102;20.010;2022-12-18T00:44:16;50.80;;;42.43;;
16804;SDS011;8520;50.102;20.010;2022-12-18T00:46:46;51.30;;;41.67;;
16804;SDS011;8520;50.102;20.010;2022-12-18T00:49:15;44.83;;;37.77;;
16804;SDS011;8520;50.102;20.010;2022-12-18T00:51:46;46.20;;;39.17;;
16804;SDS011;8520;50.102;20.010;2022-12-18T00:54:15;43.10;;;36.57;;
16804;SDS011;8520;50.102;20.010;2022-12-18T00:56:43;33.23;;;29.73;;
16804;SDS011;8520;50.102;20.010;2022-12-18T00:59:15;35.90;;;30.77;;
16804;SDS011;8520;50.102;20.010;2022-12-18T01:01:43;33.80;;;30.27;;
16804;SDS011;8520;50.102;20.010;2022-12-18T01:04:12;31.53;;;28.17;;
16804;SDS011;8520;50.102;20.010;2022-12-18T01:06:44;29.73;;;26.67;;
16804;SDS011;8520;50.102;20.010;2022-12-18T01:09:13;31.03;;;27.63;;
16804;SDS011;8520;50.102;20.010;2022-12-18T01:11:42;30.10;;;26.90;;
16804;SDS011;8520;50.102;20.010;2022-12-18T01:14:10;30.47;;;27.27;;
16804;SDS011;8520;50.102;20.010;2022-12-18T01:16:38;30.43;;;27.27;;
16804;SDS011;8520;50.102;20.010;2022-12-18T01:19:06;30.90;;;27.57;;
16804;SDS011;8520;50.102;20.010;2022-12-18T01:21:34;29.93;;;26.80;;
16804;SDS011;8520;50.102;20.010;2022-12-18T01:24:03;31.17;;;27.80;;
16804;SDS011;8520;50.102;20.010;2022-12-18T01:26:33;31.73;;;28.33;;
16804;SDS011;8520;50.102;20.010;2022-12-18T01:29:02;29.50;;;26.30;;
16804;SDS011;8520;50.102;20.010;2022-12-18T01:31:30;29.40;;;26.40;;
16804;SDS011;8520;50.102;20.010;2022-12-18T01:34:01;29.40;;;26.27;;
16804;SDS011;8520;50.102;20.010;2022-12-18T01:36:31;30.80;;;27.23;;
16804;SDS011;8520;50.102;20.010;2022-12-18T01:39:00;29.20;;;26.30;;
16804;SDS011;8520;50.102;20.010;2022-12-18T01:41:31;29.80;;;26.70;;
16804;SDS011;8520;50.102;20.010;2022-12-18T01:47:23;30.97;;;27.67;;
16804;SDS011;8520;50.102;20.010;2022-12-18T01:49:55;30.70;;;27.37;;
16804;SDS011;8520;50.102;20.010;2022-12-18T01:52:25;30.37;;;27.07;;
16804;SDS011;8520;50.102;20.010;2022-12-18T01:54:56;30.13;;;27.13;;
16804;SDS011;8520;50.102;20.010;2022-12-18T01:57:25;30.30;;;27.10;;
16804;SDS011;8520;50.102;20.010;2022-12-18T01:59:55;29.33;;;26.23;;
16804;SDS011;8520;50.102;20.010;2022-12-18T02:02:38;30.20;;;27.07;;
16804;SDS011;8520;50.102;20.010;2022-12-18T02:05:08;31.40;;;27.43;;
16804;SDS011;8520;50.102;20.010;2022-12-18T02:07:40;31.27;;;27.93;;
16804;SDS011;8520;50.102;20.010;2022-12-18T02:10:14;28.47;;;25.63;;
16804;SDS011;8520;50.102;20.010;2022-12-18T02:12:50;31.30;;;27.30;;
16804;SDS011;8520;50.102;20.010;2022-12-18T02:15:25;29.40;;;26.00;;
16804;SDS011;8520;50.102;20.010;2022-12-18T02:18:01;28.27;;;25.47;;
16804;SDS011;8520;50.102;20.010;2022-12-18T02:20:34;27.57;;;24.77;;
16804;SDS011;8520;50.102;20.010;2022-12-18T02:23:10;28.00;;;25.10;;
16804;SDS011;8520;50.102;20.010;2022-12-18T02:25:54;27.90;;;25.10;;
16804;SDS011;8520;50.102;20.010;2022-12-18T02:28:34;28.27;;;25.37;;
16804;SDS011;8520;50.102;20.010;2022-12-18T02:31:06;25.80;;;23.10;;
16804;SDS011;8520;50.102;20.010;2022-12-18T02:33:39;28.33;;;25.13;;
16804;SDS011;8520;50.102;20.010;2022-12-18T02:36:09;27.67;;;24.77;;
16804;SDS011;8520;50.102;20.010;2022-12-18T02:38:38;28.27;;;25.37;;
16804;SDS011;8520;50.102;20.010;2022-12-18T02:41:12;28.87;;;25.70;;
16804;SDS011;8520;50.102;20.010;2022-12-18T02:43:46;28.13;;;25.23;;
16804;SDS011;8520;50.102;20.010;2022-12-18T02:46:25;28.60;;;25.60;;
16804;SDS011;8520;50.102;20.010;2022-12-18T02:49:01;28.27;;;25.27;;
16804;SDS011;8520;50.102;20.010;2022-12-18T02:51:39;29.03;;;25.93;;
16804;SDS011;8520;50.102;20.010;2022-12-18T02:54:18;28.10;;;25.30;;
16804;SDS011;8520;50.102;20.010;2022-12-18T02:56:58;28.53;;;25.53;;
16804;SDS011;8520;50.102;20.010;2022-12-18T02:59:34;32.63;;;28.63;;
16804;SDS011;8520;50.102;20.010;2022-12-18T03:02:14;32.27;;;28.87;;
16804;SDS011;8520;50.102;20.010;2022-12-18T03:04:50;33.10;;;29.60;;
16804;SDS011;8520;50.102;20.010;2022-12-18T03:07:27;34.03;;;30.33;;
16804;SDS011;8520;50.102;20.010;2022-12-18T03:10:06;33.20;;;29.63;;
16804;SDS011;8520;50.102;20.010;2022-12-18T03:12:42;32.87;;;29.43;;
16804;SDS011;8520;50.102;20.010;2022-12-18T03:15:13;35.70;;;31.67;;
16804;SDS011;8520;50.102;20.010;2022-12-18T03:17:50;36.63;;;31.73;;
16804;SDS011;8520;50.102;20.010;2022-12-18T03:20:24;42.17;;;34.33;;
16804;SDS011;8520;50.102;20.010;2022-12-18T03:22:55;44.20;;;37.27;;
16804;SDS011;8520;50.102;20.010;2022-12-18T03:25:27;46.60;;;37.87;;
16804;SDS011;8520;50.102;20.010;2022-12-18T03:27:59;48.93;;;38.20;;
16804;SDS011;8520;50.102;20.010;2022-12-18T03:30:30;48.97;;;39.00;;
16804;SDS011;8520;50.102;20.010;2022-12-18T03:33:02;50.50;;;40.47;;
16804;SDS011;8520;50.102;20.010;2022-12-18T03:35:38;49.70;;;40.43;;
16804;SDS011;8520;50.102;20.010;2022-12-18T03:38:10;51.57;;;42.37;;
16804;SDS011;8520;50.102;20.010;2022-12-18T03:40:45;53.27;;;41.83;;
16804;SDS011;8520;50.102;20.010;2022-12-18T03:43:30;52.70;;;42.43;;
16804;SDS011;8520;50.102;20.010;2022-12-18T03:46:08;49.93;;;40.83;;
16804;SDS011;8520;50.102;20.010;2022-12-18T03:48:44;50.50;;;40.97;;
16804;SDS011;8520;50.102;20.010;2022-12-18T03:51:18;50.03;;;41.40;;
16804;SDS011;8520;50.102;20.010;2022-12-18T03:53:55;53.10;;;42.43;;
16804;SDS011;8520;50.102;20.010;2022-12-18T03:56:31;52.77;;;42.47;;
16804;SDS011;8520;50.102;20.010;2022-12-18T03:59:05;54.97;;;43.33;;
16804;SDS011;8520;50.102;20.010;2022-12-18T04:01:38;55.80;;;42.20;;
16804;SDS011;8520;50.102;20.010;2022-12-18T04:04:12;55.40;;;42.57;;
16804;SDS011;8520;50.102;20.010;2022-12-18T04:06:43;58.43;;;43.33;;
16804;SDS011;8520;50.102;20.010;2022-12-18T04:09:13;54.47;;;42.87;;
16804;SDS011;8520;50.102;20.010;2022-12-18T04:11:45;51.47;;;41.60;;
16804;SDS011;8520;50.102;20.010;2022-12-18T04:14:16;53.73;;;43.33;;
16804;SDS011;8520;50.102;20.010;2022-12-18T04:16:48;57.50;;;43.67;;
16804;SDS011;8520;50.102;20.010;2022-12-18T04:19:20;57.47;;;43.10;;
16804;SDS011;8520;50.102;20.010;2022-12-18T04:21:50;54.87;;;42.87;;
16804;SDS011;8520;50.102;20.010;2022-12-18T04:24:18;54.90;;;43.83;;
16804;SDS011;8520;50.102;20.010;2022-12-18T04:26:58;57.20;;;44.70;;
16804;SDS011;8520;50.102;20.010;2022-12-18T04:29:33;52.27;;;42.90;;
16804;SDS011;8520;50.102;20.010;2022-12-18T04:32:01;59.87;;;45.60;;
16804;SDS011;8520;50.102;20.010;2022-12-18T04:34:31;58.83;;;46.10;;
16804;SDS011;8520;50.102;20.010;2022-12-18T04:36:59;56.47;;;44.83;;
16804;SDS011;8520;50.102;20.010;2022-12-18T04:39:27;57.53;;;44.10;;
16804;SDS011;8520;50.102;20.010;2022-12-18T04:42:00;58.90;;;46.07;;
16804;SDS011;8520;50.102;20.010;2022-12-18T04:44:28;60.13;;;42.83;;
16804;SDS011;8520;50.102;20.010;2022-12-18T04:46:58;58.23;;;45.37;;
16804;SDS011;8520;50.102;20.010;2022-12-18T04:49:26;60.30;;;46.70;;
16804;SDS011;8520;50.102;20.010;2022-12-18T04:51:54;61.70;;;44.97;;
16804;SDS011;8520;50.102;20.010;2022-12-18T04:54:22;59.03;;;44.80;;
16804;SDS011;8520;50.102;20.010;2022-12-18T04:56:50;62.13;;;46.00;;
16804;SDS011;8520;50.102;20.010;2022-12-18T04:59:19;61.57;;;47.03;;
16804;SDS011;8520;50.102;20.010;2022-12-18T05:01:47;60.87;;;46.47;;
16804;SDS011;8520;50.102;20.010;2022-12-18T05:04:16;62.23;;;46.30;;
16804;SDS011;8520;50.102;20.010;2022-12-18T05:06:45;59.80;;;46.07;;
16804;SDS011;8520;50.102;20.010;2022-12-18T05:09:14;60.20;;;44.50;;
16804;SDS011;8520;50.102;20.010;2022-12-18T05:11:42;58.57;;;45.87;;
16804;SDS011;8520;50.102;20.010;2022-12-18T05:14:11;65.50;;;48.30;;
16804;SDS011;8520;50.102;20.010;2022-12-18T05:16:39;58.33;;;46.30;;
16804;SDS011;8520;50.102;20.010;2022-12-18T05:19:08;64.77;;;47.37;;
16804;SDS011;8520;50.102;20.010;2022-12-18T05:21:37;59.77;;;46.03;;
16804;SDS011;8520;50.102;20.010;2022-12-18T05:24:06;64.73;;;46.87;;
16804;SDS011;8520;50.102;20.010;2022-12-18T05:26:34;61.63;;;47.23;;
16804;SDS011;8520;50.102;20.010;2022-12-18T05:29:02;65.40;;;46.70;;
16804;SDS011;8520;50.102;20.010;2022-12-18T05:31:30;59.70;;;46.20;;
16804;SDS011;8520;50.102;20.010;2022-12-18T05:34:05;61.63;;;46.30;;
16804;SDS011;8520;50.102;20.010;2022-12-18T05:36:33;59.77;;;46.77;;
16804;SDS011;8520;50.102;20.010;2022-12-18T05:39:03;59.17;;;45.20;;
16804;SDS011;8520;50.102;20.010;2022-12-18T05:41:31;64.80;;;46.93;;
16804;SDS011;8520;50.102;20.010;2022-12-18T05:43:59;61.90;;;46.60;;
16804;SDS011;8520;50.102;20.010;2022-12-18T05:46:27;61.83;;;48.23;;
16804;SDS011;8520;50.102;20.010;2022-12-18T05:48:58;60.27;;;48.33;;
16804;SDS011;8520;50.102;20.010;2022-12-18T05:51:27;61.27;;;46.70;;
16804;SDS011;8520;50.102;20.010;2022-12-18T05:53:55;59.53;;;46.43;;
16804;SDS011;8520;50.102;20.010;2022-12-18T05:56:24;62.83;;;46.97;;
16804;SDS011;8520;50.102;20.010;2022-12-18T05:58:53;61.13;;;48.23;;
16804;SDS011;8520;50.102;20.010;2022-12-18T06:01:23;63.23;;;48.87;;
16804;SDS011;8520;50.102;20.010;2022-12-18T06:03:53;65.13;;;49.10;;
16804;SDS011;8520;50.102;20.010;2022-12-18T06:06:23;63.87;;;48.53;;
16804;SDS011;8520;50.102;20.010;2022-12-18T06:08:52;62.90;;;46.83;;
16804;SDS011;8520;50.102;20.010;2022-12-18T06:11:22;64.40;;;48.03;;
16804;SDS011;8520;50.102;20.010;2022-12-18T06:13:53;61.50;;;47.53;;
16804;SDS011;8520;50.102;20.010;2022-12-18T06:16:24;64.87;;;48.73;;
16804;SDS011;8520;50.102;20.010;2022-12-18T06:18:53;58.87;;;47.47;;
16804;SDS011;8520;50.102;20.010;2022-12-18T06:21:24;65.57;;;48.00;;
16804;SDS011;8520;50.102;20.010;2022-12-18T06:23:52;64.77;;;48.37;;
16804;SDS011;8520;50.102;20.010;2022-12-18T06:26:20;65.63;;;49.63;;
16804;SDS011;8520;50.102;20.010;2022-12-18T06:28:55;62.10;;;48.60;;
16804;SDS011;8520;50.102;20.010;2022-12-18T06:31:24;67.27;;;49.23;;
16804;SDS011;8520;50.102;20.010;2022-12-18T06:33:53;63.30;;;48.40;;
16804;SDS011;8520;50.102;20.010;2022-12-18T06:36:21;64.50;;;47.87;;
16804;SDS011;8520;50.102;20.010;2022-12-18T06:38:49;64.87;;;48.43;;
16804;SDS011;8520;50.102;20.010;2022-12-18T06:41:19;64.57;;;48.00;;
16804;SDS011;8520;50.102;20.010;2022-12-18T06:43:48;60.00;;;44.73;;
16804;SDS011;8520;50.102;20.010;2022-12-18T06:46:22;61.60;;;46.50;;
16804;SDS011;8520;50.102;20.010;2022-12-18T06:48:50;60.90;;;46.73;;
16804;SDS011;8520;50.102;20.010;2022-12-18T06:51:18;64.10;;;47.23;;
16804;SDS011;8520;50.102;20.010;2022-12-18T06:53:47;65.03;;;48.37;;
16804;SDS011;8520;50.102;20.010;2022-12-18T06:56:15;58.60;;;44.73;;
16804;SDS011;8520;50.102;20.010;2022-12-18T06:58:43;64.03;;;47.73;;
16804;SDS011;8520;50.102;20.010;2022-12-18T07:01:12;63.47;;;47.80;;
16804;SDS011;8520;50.102;20.010;2022-12-18T07:03:42;62.13;;;47.67;;
16804;SDS011;8520;50.102;20.010;2022-12-18T07:06:15;60.20;;;46.27;;
16804;SDS011;8520;50.102;20.010;2022-12-18T07:08:44;63.60;;;47.57;;
16804;SDS011;8520;50.102;20.010;2022-12-18T07:11:13;64.73;;;48.40;;
16804;SDS011;8520;50.102;20.010;2022-12-18T07:13:41;63.87;;;47.40;;
16804;SDS011;8520;50.102;20.010;2022-12-18T07:16:11;61.37;;;46.17;;
16804;SDS011;8520;50.102;20.010;2022-12-18T07:18:51;63.07;;;46.63;;
16804;SDS011;8520;50.102;20.010;2022-12-18T07:21:20;59.43;;;46.60;;
16804;SDS011;8520;50.102;20.010;2022-12-18T07:23:49;60.10;;;46.07;;
16804;SDS011;8520;50.102;20.010;2022-12-18T07:26:17;61.57;;;46.77;;
16804;SDS011;8520;50.102;20.010;2022-12-18T07:28:47;63.03;;;47.97;;
16804;SDS011;8520;50.102;20.010;2022-12-18T07:31:16;60.13;;;47.60;;
16804;SDS011;8520;50.102;20.010;2022-12-18T07:33:47;61.47;;;46.87;;
16804;SDS011;8520;50.102;20.010;2022-12-18T07:36:17;61.67;;;48.00;;
16804;SDS011;8520;50.102;20.010;2022-12-18T07:38:46;63.20;;;47.57;;
16804;SDS011;8520;50.102;20.010;2022-12-18T07:41:15;63.63;;;46.40;;
16804;SDS011;8520;50.102;20.010;2022-12-18T07:43:45;63.73;;;47.07;;
16804;SDS011;8520;50.102;20.010;2022-12-18T07:46:14;60.07;;;45.40;;
16804;SDS011;8520;50.102;20.010;2022-12-18T07:48:43;61.93;;;47.47;;
16804;SDS011;8520;50.102;20.010;2022-12-18T07:51:17;62.27;;;47.97;;
16804;SDS011;8520;50.102;20.010;2022-12-18T07:53:46;62.53;;;47.83;;
16804;SDS011;8520;50.102;20.010;2022-12-18T07:56:18;60.77;;;46.53;;
16804;SDS011;8520;50.102;20.010;2022-12-18T07:58:56;66.73;;;47.13;;
16804;SDS011;8520;50.102;20.010;2022-12-18T08:01:25;64.33;;;47.67;;
16804;SDS011;8520;50.102;20.010;2022-12-18T08:03:53;65.70;;;48.30;;
16804;SDS011;8520;50.102;20.010;2022-12-18T08:06:22;58.63;;;46.50;;
16804;SDS011;8520;50.102;20.010;2022-12-18T08:08:51;57.57;;;45.03;;
16804;SDS011;8520;50.102;20.010;2022-12-18T08:11:20;66.00;;;47.03;;
16804;SDS011;8520;50.102;20.010;2022-12-18T08:13:49;63.67;;;46.23;;
16804;SDS011;8520;50.102;20.010;2022-12-18T08:16:17;62.37;;;46.13;;
16804;SDS011;8520;50.102;20.010;2022-12-18T08:18:46;59.73;;;45.97;;
16804;SDS011;8520;50.102;20.010;2022-12-18T08:21:15;60.10;;;45.33;;
16804;SDS011;8520;50.102;20.010;2022-12-18T08:23:49;62.63;;;46.20;;
16804;SDS011;8520;50.102;20.010;2022-12-18T08:26:18;60.40;;;46.40;;
16804;SDS011;8520;50.102;20.010;2022-12-18T08:28:47;59.67;;;44.27;;
16804;SDS011;8520;50.102;20.010;2022-12-18T08:31:16;59.63;;;44.53;;
16804;SDS011;8520;50.102;20.010;2022-12-18T08:33:44;65.23;;;46.67;;
16804;SDS011;8520;50.102;20.010;2022-12-18T08:36:15;59.60;;;44.67;;
16804;SDS011;8520;50.102;20.010;2022-12-18T08:38:43;65.50;;;46.40;;
16804;SDS011;8520;50.102;20.010;2022-12-18T08:41:14;62.70;;;46.07;;
16804;SDS011;8520;50.102;20.010;2022-12-18T08:43:43;56.30;;;44.43;;
16804;SDS011;8520;50.102;20.010;2022-12-18T08:46:32;61.30;;;46.33;;
16804;SDS011;8520;50.102;20.010;2022-12-18T08:49:02;58.00;;;43.23;;
16804;SDS011;8520;50.102;20.010;2022-12-18T08:51:30;56.70;;;44.57;;
16804;SDS011;8520;50.102;20.010;2022-12-18T08:53:58;57.83;;;43.17;;
16804;SDS011;8520;50.102;20.010;2022-12-18T08:56:28;60.30;;;44.83;;
16804;SDS011;8520;50.102;20.010;2022-12-18T08:58:57;58.90;;;44.47;;
16804;SDS011;8520;50.102;20.010;2022-12-18T09:01:25;58.23;;;44.07;;
16804;SDS011;8520;50.102;20.010;2022-12-18T09:03:53;56.93;;;44.17;;
16804;SDS011;8520;50.102;20.010;2022-12-18T09:06:22;59.73;;;43.40;;
16804;SDS011;8520;50.102;20.010;2022-12-18T09:08:50;56.70;;;43.43;;
16804;SDS011;8520;50.102;20.010;2022-12-18T09:11:20;62.57;;;44.63;;
16804;SDS011;8520;50.102;20.010;2022-12-18T09:13:51;57.50;;;44.87;;
16804;SDS011;8520;50.102;20.010;2022-12-18T09:16:20;57.77;;;43.97;;
16804;SDS011;8520;50.102;20.010;2022-12-18T09:18:57;57.97;;;42.83;;
16804;SDS011;8520;50.102;20.010;2022-12-18T09:21:27;55.53;;;42.63;;
16804;SDS011;8520;50.102;20.010;2022-12-18T09:24:02;58.90;;;42.90;;
16804;SDS011;8520;50.102;20.010;2022-12-18T09:26:34;56.73;;;43.57;;
16804;SDS011;8520;50.102;20.010;2022-12-18T09:29:04;54.60;;;42.43;;
16804;SDS011;8520;50.102;20.010;2022-12-18T09:31:33;60.80;;;44.23;;
16804;SDS011;8520;50.102;20.010;2022-12-18T09:34:02;56.63;;;42.40;;
16804;SDS011;8520;50.102;20.010;2022-12-18T09:36:31;59.80;;;43.87;;
16804;SDS011;8520;50.102;20.010;2022-12-18T09:38:59;61.23;;;43.40;;
16804;SDS011;8520;50.102;20.010;2022-12-18T09:41:39;60.90;;;43.63;;
16804;SDS011;8520;50.102;20.010;2022-12-18T09:44:13;51.87;;;42.93;;
16804;SDS011;8520;50.102;20.010;2022-12-18T09:46:49;59.87;;;44.10;;
16804;SDS011;8520;50.102;20.010;2022-12-18T09:49:22;60.07;;;43.47;;
16804;SDS011;8520;50.102;20.010;2022-12-18T09:51:54;58.90;;;43.83;;
16804;SDS011;8520;50.102;20.010;2022-12-18T09:54:30;61.87;;;45.23;;
16804;SDS011;8520;50.102;20.010;2022-12-18T09:57:03;61.17;;;44.27;;
16804;SDS011;8520;50.102;20.010;2022-12-18T09:59:33;58.63;;;43.83;;
16804;SDS011;8520;50.102;20.010;2022-12-18T10:02:14;58.90;;;45.00;;
16804;SDS011;8520;50.102;20.010;2022-12-18T10:04:44;56.40;;;42.93;;
16804;SDS011;8520;50.102;20.010;2022-12-18T10:07:22;55.50;;;42.10;;
16804;SDS011;8520;50.102;20.010;2022-12-18T10:09:58;55.90;;;43.03;;
16804;SDS011;8520;50.102;20.010;2022-12-18T10:12:33;59.47;;;43.93;;
16804;SDS011;8520;50.102;20.010;2022-12-18T10:15:13;59.27;;;44.70;;
16804;SDS011;8520;50.102;20.010;2022-12-18T10:17:48;57.60;;;44.00;;
16804;SDS011;8520;50.102;20.010;2022-12-18T10:20:24;58.00;;;44.50;;
16804;SDS011;8520;50.102;20.010;2022-12-18T10:23:02;57.03;;;43.30;;
16804;SDS011;8520;50.102;20.010;2022-12-18T10:25:50;57.10;;;43.27;;
16804;SDS011;8520;50.102;20.010;2022-12-18T10:28:23;54.10;;;43.23;;
16804;SDS011;8520;50.102;20.010;2022-12-18T10:30:53;60.30;;;44.47;;
16804;SDS011;8520;50.102;20.010;2022-12-18T10:33:22;59.67;;;43.97;;
16804;SDS011;8520;50.102;20.010;2022-12-18T10:35:52;62.53;;;44.90;;
16804;SDS011;8520;50.102;20.010;2022-12-18T10:38:22;57.67;;;43.20;;
16804;SDS011;8520;50.102;20.010;2022-12-18T10:40:53;63.27;;;46.57;;
16804;SDS011;8520;50.102;20.010;2022-12-18T10:43:24;58.83;;;44.07;;
16804;SDS011;8520;50.102;20.010;2022-12-18T10:45:59;54.83;;;44.43;;
16804;SDS011;8520;50.102;20.010;2022-12-18T10:48:30;59.17;;;44.53;;
16804;SDS011;8520;50.102;20.010;2022-12-18T10:50:59;59.97;;;44.37;;
16804;SDS011;8520;50.102;20.010;2022-12-18T10:53:39;58.13;;;43.30;;
16804;SDS011;8520;50.102;20.010;2022-12-18T10:56:09;62.60;;;43.63;;
16804;SDS011;8520;50.102;20.010;2022-12-18T10:58:38;66.00;;;43.60;;
16804;SDS011;8520;50.102;20.010;2022-12-18T11:01:10;59.50;;;43.73;;
16804;SDS011;8520;50.102;20.010;2022-12-18T11:03:40;58.10;;;43.47;;
16804;SDS011;8520;50.102;20.010;2022-12-18T11:06:11;59.30;;;44.10;;
16804;SDS011;8520;50.102;20.010;2022-12-18T11:08:41;56.43;;;42.00;;
16804;SDS011;8520;50.102;20.010;2022-12-18T11:11:15;64.13;;;45.13;;
16804;SDS011;8520;50.102;20.010;2022-12-18T11:13:51;48.90;;;36.60;;
16804;SDS011;8520;50.102;20.010;2022-12-18T11:16:28;48.20;;;36.67;;
16804;SDS011;8520;50.102;20.010;2022-12-18T11:19:09;48.90;;;38.00;;
16804;SDS011;8520;50.102;20.010;2022-12-18T11:21:51;45.80;;;36.40;;
16804;SDS011;8520;50.102;20.010;2022-12-18T11:24:20;60.10;;;42.10;;
16804;SDS011;8520;50.102;20.010;2022-12-18T11:26:54;33.83;;;27.67;;
16804;SDS011;8520;50.102;20.010;2022-12-18T11:29:28;30.43;;;25.10;;
16804;SDS011;8520;50.102;20.010;2022-12-18T11:32:18;32.60;;;25.40;;
16804;SDS011;8520;50.102;20.010;2022-12-18T11:34:57;30.20;;;25.07;;
16804;SDS011;8520;50.102;20.010;2022-12-18T11:37:31;32.63;;;25.90;;
16804;SDS011;8520;50.102;20.010;2022-12-18T11:40:01;32.53;;;24.57;;
16804;SDS011;8520;50.102;20.010;2022-12-18T11:42:35;31.53;;;24.40;;
16804;SDS011;8520;50.102;20.010;2022-12-18T11:45:18;31.33;;;24.13;;
16804;SDS011;8520;50.102;20.010;2022-12-18T11:47:54;29.97;;;24.20;;
16804;SDS011;8520;50.102;20.010;2022-12-18T11:50:29;27.30;;;22.93;;
16804;SDS011;8520;50.102;20.010;2022-12-18T11:53:01;28.27;;;23.63;;
16804;SDS011;8520;50.102;20.010;2022-12-18T11:55:35;29.40;;;24.97;;
16804;SDS011;8520;50.102;20.010;2022-12-18T11:58:09;37.30;;;29.23;;
16804;SDS011;8520;50.102;20.010;2022-12-18T12:00:49;40.63;;;30.53;;
16804;SDS011;8520;50.102;20.010;2022-12-18T12:03:34;40.07;;;31.30;;
16804;SDS011;8520;50.102;20.010;2022-12-18T12:06:16;37.90;;;30.17;;
16804;SDS011;8520;50.102;20.010;2022-12-18T12:08:54;37.00;;;29.50;;
16804;SDS011;8520;50.102;20.010;2022-12-18T12:11:32;40.47;;;29.93;;
16804;SDS011;8520;50.102;20.010;2022-12-18T12:14:14;37.60;;;30.17;;
16804;SDS011;8520;50.102;20.010;2022-12-18T12:16:50;35.60;;;29.03;;
16804;SDS011;8520;50.102;20.010;2022-12-18T12:19:29;32.40;;;27.03;;
16804;SDS011;8520;50.102;20.010;2022-12-18T12:22:05;35.87;;;29.77;;
16804;SDS011;8520;50.102;20.010;2022-12-18T12:24:45;37.33;;;29.30;;
16804;SDS011;8520;50.102;20.010;2022-12-18T12:27:25;36.17;;;28.57;;
16804;SDS011;8520;50.102;20.010;2022-12-18T12:30:04;38.97;;;29.23;;
16804;SDS011;8520;50.102;20.010;2022-12-18T12:32:40;35.67;;;29.73;;
16804;SDS011;8520;50.102;20.010;2022-12-18T12:35:23;35.77;;;29.57;;
16804;SDS011;8520;50.102;20.010;2022-12-18T12:38:01;37.73;;;30.53;;
16804;SDS011;8520;50.102;20.010;2022-12-18T12:40:37;36.70;;;29.47;;
16804;SDS011;8520;50.102;20.010;2022-12-18T12:43:27;38.53;;;30.87;;
16804;SDS011;8520;50.102;20.010;2022-12-18T12:46:00;38.23;;;29.40;;
16804;SDS011;8520;50.102;20.010;2022-12-18T12:48:38;36.87;;;30.50;;
16804;SDS011;8520;50.102;20.010;2022-12-18T12:51:16;38.50;;;30.47;;
16804;SDS011;8520;50.102;20.010;2022-12-18T12:53:47;40.10;;;30.87;;
16804;SDS011;8520;50.102;20.010;2022-12-18T12:56:16;40.37;;;31.60;;
16804;SDS011;8520;50.102;20.010;2022-12-18T12:58:58;39.67;;;30.40;;
16804;SDS011;8520;50.102;20.010;2022-12-18T13:01:34;35.93;;;29.80;;
16804;SDS011;8520;50.102;20.010;2022-12-18T13:04:12;36.40;;;29.67;;
16804;SDS011;8520;50.102;20.010;2022-12-18T13:06:54;39.87;;;30.37;;
16804;SDS011;8520;50.102;20.010;2022-12-18T13:09:31;39.10;;;30.27;;
16804;SDS011;8520;50.102;20.010;2022-12-18T13:12:03;35.47;;;29.70;;
16804;SDS011;8520;50.102;20.010;2022-12-18T13:15:12;37.13;;;29.20;;
16804;SDS011;8520;50.102;20.010;2022-12-18T13:17:48;38.00;;;29.30;;
16804;SDS011;8520;50.102;20.010;2022-12-18T13:20:16;33.17;;;28.43;;
16804;SDS011;8520;50.102;20.010;2022-12-18T13:22:46;33.07;;;27.23;;
16804;SDS011;8520;50.102;20.010;2022-12-18T13:25:29;32.73;;;27.33;;
16804;SDS011;8520;50.102;20.010;2022-12-18T13:28:02;42.70;;;33.93;;
16804;SDS011;8520;50.102;20.010;2022-12-18T13:33:36;37.13;;;28.87;;
16804;SDS011;8520;50.102;20.010;2022-12-18T13:36:29;38.57;;;31.10;;
16804;SDS011;8520;50.102;20.010;2022-12-18T13:39:20;38.33;;;31.43;;
16804;SDS011;8520;50.102;20.010;2022-12-18T13:45:34;39.40;;;31.37;;
16804;SDS011;8520;50.102;20.010;2022-12-18T13:48:19;40.10;;;31.80;;
16804;SDS011;8520;50.102;20.010;2022-12-18T13:50:55;39.17;;;31.60;;
16804;SDS011;8520;50.102;20.010;2022-12-18T13:53:28;41.00;;;32.03;;
16804;SDS011;8520;50.102;20.010;2022-12-18T13:56:02;39.57;;;32.07;;
16804;SDS011;8520;50.102;20.010;2022-12-18T13:58:31;41.13;;;33.33;;
16804;SDS011;8520;50.102;20.010;2022-12-18T14:00:59;41.47;;;33.93;;
16804;SDS011;8520;50.102;20.010;2022-12-18T14:03:29;42.50;;;34.73;;
16804;SDS011;8520;50.102;20.010;2022-12-18T14:06:02;43.27;;;34.40;;
16804;SDS011;8520;50.102;20.010;2022-12-18T14:08:35;49.57;;;37.17;;
16804;SDS011;8520;50.102;20.010;2022-12-18T14:11:08;46.83;;;35.50;;
16804;SDS011;8520;50.102;20.010;2022-12-18T14:13:47;45.90;;;37.63;;
16804;SDS011;8520;50.102;20.010;2022-12-18T14:16:16;49.43;;;38.77;;
16804;SDS011;8520;50.102;20.010;2022-12-18T14:18:45;52.30;;;40.77;;
16804;SDS011;8520;50.102;20.010;2022-12-18T14:21:17;53.73;;;41.10;;
16804;SDS011;8520;50.102;20.010;2022-12-18T14:23:47;55.93;;;42.23;;
16804;SDS011;8520;50.102;20.010;2022-12-18T14:26:24;61.37;;;44.90;;
16804;SDS011;8520;50.102;20.010;2022-12-18T14:28:56;66.17;;;46.57;;
16804;SDS011;8520;50.102;20.010;2022-12-18T14:31:28;62.40;;;46.43;;
16804;SDS011;8520;50.102;20.010;2022-12-18T14:33:58;67.47;;;47.93;;
16804;SDS011;8520;50.102;20.010;2022-12-18T14:36:26;64.53;;;47.20;;
16804;SDS011;8520;50.102;20.010;2022-12-18T14:38:56;62.03;;;46.13;;
16804;SDS011;8520;50.102;20.010;2022-12-18T14:41:27;59.23;;;44.37;;
16804;SDS011;8520;50.102;20.010;2022-12-18T14:43:56;60.63;;;45.50;;
16804;SDS011;8520;50.102;20.010;2022-12-18T14:46:34;59.87;;;45.70;;
16804;SDS011;8520;50.102;20.010;2022-12-18T14:49:14;66.47;;;48.97;;
16804;SDS011;8520;50.102;20.010;2022-12-18T14:51:48;63.77;;;46.77;;
16804;SDS011;8520;50.102;20.010;2022-12-18T14:54:19;62.63;;;47.20;;
16804;SDS011;8520;50.102;20.010;2022-12-18T14:56:50;64.07;;;48.13;;
16804;SDS011;8520;50.102;20.010;2022-12-18T14:59:24;65.27;;;48.27;;
16804;SDS011;8520;50.102;20.010;2022-12-18T15:01:57;64.77;;;48.13;;